Time;durP1;ratioP1;P1;durP2;ratioP2;P2;SDS_P1;SDS_P2;PMS_P1;PMS_P2;Temp;Humidity;BMP_temperature;BMP_pressure;BME280_temperature;BME280_humidity;BME280_pressure;Samples;Min_cycle;Max_cycle;Signal;HPM_P1;HPM_P2
2023/09/15 00:01:39;;;;;;;4.07;2.08;;;;;15.10;98898.00;;;;4937435;29;20505;-67
2023/09/15 00:04:06;;;;;;;4.50;2.08;;;;;15.00;98896.00;;;;4935408;29;20620;-66
2023/09/15 00:06:37;;;;;;;3.75;2.28;;;;;14.90;98897.00;;;;4936333;29;20063;-66
2023/09/15 00:09:06;;;;;;;3.63;2.10;;;;;15.00;98896.00;;;;4937391;29;20047;-67
2023/09/15 00:11:40;;;;;;;3.95;2.00;;;;;15.00;98893.00;;;;4937560;29;20035;-67
2023/09/15 00:14:11;;;;;;;5.18;2.00;;;;;14.90;98893.00;;;;4938903;29;20513;-66
2023/09/15 00:16:43;;;;;;;4.45;2.58;;;;;14.60;98894.00;;;;4935385;29;20052;-68
2023/09/15 00:19:14;;;;;;;3.83;2.25;;;;;14.50;98900.00;;;;4937601;29;20052;-67
2023/09/15 00:21:42;;;;;;;3.42;1.75;;;;;14.40;98900.00;;;;4937277;29;20047;-67
2023/09/15 00:24:09;;;;;;;4.78;2.45;;;;;14.40;98892.00;;;;4935642;29;20048;-67
2023/09/15 00:26:36;;;;;;;3.88;2.15;;;;;14.50;98894.00;;;;4935728;29;20074;-68
2023/09/15 00:29:04;;;;;;;3.58;2.15;;;;;14.60;98896.00;;;;4937327;29;20043;-66
2023/09/15 00:31:31;;;;;;;5.68;2.22;;;;;14.60;98903.00;;;;4920305;29;20051;-67
2023/09/15 00:33:58;;;;;;;3.00;2.03;;;;;14.60;98898.00;;;;4936233;29;20047;-67
2023/09/15 00:36:25;;;;;;;4.25;2.30;;;;;14.40;98897.00;;;;4919951;29;20073;-67
2023/09/15 00:38:52;;;;;;;3.22;1.98;;;;;14.40;98896.00;;;;4937124;29;20560;-67
2023/09/15 00:41:18;;;;;;;2.35;2.00;;;;;14.50;98895.00;;;;4935986;29;20079;-68
2023/09/15 00:43:45;;;;;;;10.10;2.50;;;;;14.60;98901.00;;;;4937060;29;20048;-68
2023/09/15 00:46:12;;;;;;;4.57;2.38;;;;;14.60;98899.00;;;;4937487;29;20060;-68
2023/09/15 00:48:40;;;;;;;3.20;2.00;;;;;14.70;98895.00;;;;4936844;29;20043;-67
2023/09/15 00:51:07;;;;;;;3.13;1.85;;;;;14.40;98896.00;;;;4920324;29;20146;-69
2023/09/15 00:53:37;;;;;;;4.55;2.13;;;;;14.30;98899.00;;;;4936701;29;20079;-67
2023/09/15 00:56:05;;;;;;;3.88;1.83;;;;;14.30;98891.00;;;;4936709;29;20088;-67
2023/09/15 00:58:32;;;;;;;7.80;2.05;;;;;14.20;98885.00;;;;4919944;29;20047;-67
2023/09/15 01:01:00;;;;;;;2.90;2.10;;;;;14.10;98883.00;;;;4935126;29;20043;-67
2023/09/15 01:03:30;;;;;;;5.93;2.38;;;;;14.10;98882.00;;;;4937057;29;20075;-69
2023/09/15 01:05:57;;;;;;;4.57;2.15;;;;;14.10;98887.00;;;;4936345;29;20081;-67
2023/09/15 01:08:24;;;;;;;4.72;2.00;;;;;14.10;98888.00;;;;4937497;29;20086;-66
2023/09/15 01:10:50;;;;;;;3.88;2.17;;;;;14.10;98889.00;;;;4938896;29;20083;-65
2023/09/15 01:13:17;;;;;;;4.68;2.80;;;;;14.10;98891.00;;;;4923913;29;20516;-65
2023/09/15 01:15:59;;;;;;;3.58;2.10;;;;;14.10;98881.00;;;;4939271;29;20047;-65
2023/09/15 01:18:32;;;;;;;2.58;2.17;;;;;14.00;98882.00;;;;4939289;29;20143;-65
2023/09/15 01:21:02;;;;;;;4.50;2.37;;;;;13.90;98874.00;;;;4938917;29;20051;-65
2023/09/15 01:24:05;;;;;;;3.70;2.22;;;;;13.80;98875.00;;;;4936180;29;20447;-65
2023/09/15 01:26:51;;;;;;;3.80;1.93;;;;;13.90;98869.00;;;;4938458;29;20147;-66
2023/09/15 01:29:18;;;;;;;2.17;1.98;;;;;14.00;98875.00;;;;4919421;29;20107;-67
2023/09/15 01:31:46;;;;;;;7.13;2.15;;;;;14.00;98869.00;;;;4922509;29;20071;-66
2023/09/15 01:34:16;;;;;;;5.25;2.13;;;;;13.80;98867.00;;;;4936537;29;20527;-67
2023/09/15 01:36:46;;;;;;;3.40;2.25;;;;;13.60;98861.00;;;;4935341;29;20051;-66
2023/09/15 01:39:13;;;;;;;3.03;1.80;;;;;13.60;98868.00;;;;4934636;29;20135;-66
2023/09/15 01:41:39;;;;;;;4.05;2.35;;;;;13.70;98867.00;;;;4935021;29;20079;-66
2023/09/15 01:44:06;;;;;;;4.28;2.40;;;;;13.80;98870.00;;;;4918986;29;20398;-65
2023/09/15 01:46:32;;;;;;;3.80;2.15;;;;;13.70;98867.00;;;;4936161;29;20075;-67
2023/09/15 01:49:00;;;;;;;4.20;2.20;;;;;13.60;98874.00;;;;4923084;29;20527;-65
2023/09/15 01:51:28;;;;;;;3.47;2.13;;;;;13.50;98867.00;;;;4939755;29;20095;-65
2023/09/15 01:53:54;;;;;;;3.08;2.40;;;;;13.70;98861.00;;;;4922308;29;20564;-65
2023/09/15 01:56:23;;;;;;;4.13;2.17;;;;;13.80;98861.00;;;;4938624;29;20095;-66
2023/09/15 01:58:50;;;;;;;3.80;2.20;;;;;13.90;98865.00;;;;4923154;29;20402;-66
2023/09/15 02:01:17;;;;;;;5.22;2.10;;;;;13.80;98864.00;;;;4922769;29;20048;-67
2023/09/15 02:03:43;;;;;;;4.72;2.25;;;;;13.70;98864.00;;;;4939084;29;20107;-67
2023/09/15 02:06:16;;;;;;;3.10;2.58;;;;;13.60;98862.00;;;;4939739;29;20505;-67
2023/09/15 02:08:47;;;;;;;3.07;2.10;;;;;13.40;98857.00;;;;4923843;29;20142;-67
2023/09/15 02:11:14;;;;;;;5.68;2.55;;;;;13.40;98862.00;;;;4938819;29;20304;-67
2023/09/15 02:13:42;;;;;;;4.05;1.80;;;;;13.30;98865.00;;;;4938526;29;20048;-67
2023/09/15 02:16:09;;;;;;;3.78;1.80;;;;;13.20;98851.00;;;;4939258;29;20094;-67
2023/09/15 02:18:36;;;;;;;4.95;2.05;;;;;13.20;98856.00;;;;4938893;29;20048;-66
2023/09/15 02:21:03;;;;;;;3.47;2.22;;;;;13.20;98861.00;;;;4939677;29;20062;-67
2023/09/15 02:23:30;;;;;;;3.97;2.10;;;;;13.20;98860.00;;;;4943176;29;20515;-67
2023/09/15 02:25:56;;;;;;;2.22;1.83;;;;;13.10;98863.00;;;;4941722;29;20051;-67
2023/09/15 02:28:23;;;;;;;5.15;2.00;;;;;13.10;98857.00;;;;4941484;29;20052;-67
2023/09/15 02:30:50;;;;;;;3.10;2.10;;;;;13.10;98857.00;;;;4940500;29;20122;-67
2023/09/15 02:33:18;;;;;;;6.35;2.55;;;;;13.10;98858.00;;;;4923746;29;20048;-68
2023/09/15 02:35:46;;;;;;;5.35;2.00;;;;;13.00;98856.00;;;;4938688;29;20104;-67
2023/09/15 02:38:12;;;;;;;5.63;2.33;;;;;12.90;98861.00;;;;4923391;29;20154;-67
2023/09/15 02:40:39;;;;;;;4.00;2.17;;;;;12.80;98850.00;;;;4940276;29;20149;-66
2023/09/15 02:43:08;;;;;;;4.85;2.17;;;;;12.70;98848.00;;;;4940129;29;20413;-66
2023/09/15 02:45:36;;;;;;;3.53;2.03;;;;;12.70;98848.00;;;;4937680;29;20055;-66
2023/09/15 02:48:05;;;;;;;5.22;1.83;;;;;12.70;98845.00;;;;4938170;29;20207;-65
2023/09/15 02:50:32;;;;;;;4.15;2.20;;;;;12.70;98842.00;;;;4938070;29;20055;-67
2023/09/15 02:53:00;;;;;;;3.13;2.08;;;;;12.70;98835.00;;;;4937648;29;20568;-66
2023/09/15 02:55:26;;;;;;;2.55;1.88;;;;;12.60;98842.00;;;;4936961;29;20055;-68
2023/09/15 02:57:54;;;;;;;5.07;2.45;;;;;12.60;98841.00;;;;4921885;29;20052;-66
2023/09/15 03:00:21;;;;;;;5.22;2.85;;;;;12.60;98843.00;;;;4937880;29;20052;-66
2023/09/15 03:02:48;;;;;;;4.32;2.35;;;;;12.50;98834.00;;;;4937710;29;20420;-65
2023/09/15 03:05:15;;;;;;;2.75;2.28;;;;;12.50;98838.00;;;;4937416;29;20071;-66
2023/09/15 03:07:42;;;;;;;4.07;2.30;;;;;12.40;98829.00;;;;4938107;29;20516;-65
2023/09/15 03:10:11;;;;;;;4.38;2.08;;;;;12.40;98832.00;;;;4938135;29;20051;-67
2023/09/15 03:12:38;;;;;;;4.13;2.30;;;;;12.40;98830.00;;;;4923378;29;20054;-66
2023/09/15 03:15:06;;;;;;;3.58;2.20;;;;;12.40;98826.00;;;;4938329;29;20071;-66
2023/09/15 03:17:34;;;;;;;10.52;2.38;;;;;12.40;98825.00;;;;4939492;29;20115;-67
2023/09/15 03:20:13;;;;;;;2.75;1.92;;;;;12.50;98822.00;;;;4924037;29;20060;-66
2023/09/15 03:22:41;;;;;;;5.47;2.80;;;;;12.60;98823.00;;;;4924000;29;20051;-66
2023/09/15 03:25:08;;;;;;;5.75;2.22;;;;;12.60;98827.00;;;;4939691;29;20485;-66
2023/09/15 03:27:34;;;;;;;3.03;2.20;;;;;12.50;98825.00;;;;4941423;29;20417;-66
2023/09/15 03:30:04;;;;;;;4.15;2.45;;;;;12.60;98830.00;;;;4940951;29;20134;-66
2023/09/15 03:32:31;;;;;;;3.17;2.20;;;;;12.70;98824.00;;;;4939868;29;20098;-66
2023/09/15 03:34:57;;;;;;;3.25;2.15;;;;;12.70;98826.00;;;;4939158;29;20075;-66
2023/09/15 03:37:25;;;;;;;5.13;2.45;;;;;12.60;98809.00;;;;4939591;29;20055;-66
2023/09/15 03:39:52;;;;;;;3.45;2.30;;;;;12.50;98817.00;;;;4940765;29;20048;-67
2023/09/15 03:42:19;;;;;;;3.70;2.78;;;;;12.50;98814.00;;;;4924420;29;20139;-66
2023/09/15 03:44:46;;;;;;;4.88;2.97;;;;;12.40;98817.00;;;;4941048;29;20194;-66
2023/09/15 03:47:13;;;;;;;5.82;2.45;;;;;12.40;98817.00;;;;4940400;29;20071;-66
2023/09/15 03:49:41;;;;;;;5.78;2.38;;;;;12.40;98801.00;;;;4926691;29;20394;-66
2023/09/15 03:52:08;;;;;;;2.75;2.00;;;;;12.30;98803.00;;;;4942771;29;20044;-66
2023/09/15 03:54:36;;;;;;;4.43;2.33;;;;;12.20;98808.00;;;;4926785;29;20051;-67
2023/09/15 03:57:03;;;;;;;3.38;2.22;;;;;12.20;98812.00;;;;4941961;29;20043;-67
2023/09/15 03:59:31;;;;;;;5.13;2.55;;;;;12.20;98812.00;;;;4940460;29;20476;-67
2023/09/15 04:01:57;;;;;;;6.57;3.10;;;;;12.20;98809.00;;;;4939503;29;20040;-66
2023/09/15 04:04:24;;;;;;;3.38;2.20;;;;;12.20;98815.00;;;;4938410;29;20054;-65
2023/09/15 04:06:51;;;;;;;5.65;2.70;;;;;12.20;98814.00;;;;4940299;29;20160;-67
2023/09/15 04:09:19;;;;;;;4.35;2.33;;;;;12.30;98805.00;;;;4937916;29;20059;-66
2023/09/15 04:11:45;;;;;;;5.13;2.40;;;;;12.20;98818.00;;;;4938938;29;20047;-66
2023/09/15 04:14:12;;;;;;;4.68;2.45;;;;;12.20;98812.00;;;;4937923;29;20055;-66
2023/09/15 04:16:38;;;;;;;3.25;2.45;;;;;12.40;98807.00;;;;4936742;29;20070;-65
2023/09/15 04:19:05;;;;;;;5.22;2.50;;;;;12.50;98808.00;;;;4937932;29;20055;-67
2023/09/15 04:21:34;;;;;;;5.15;2.75;;;;;12.60;98805.00;;;;4936571;29;20054;-65
2023/09/15 04:24:00;;;;;;;3.88;1.90;;;;;12.60;98810.00;;;;4935573;29;20058;-66
2023/09/15 04:26:27;;;;;;;4.40;2.17;;;;;12.70;98811.00;;;;4936168;29;20051;-65
2023/09/15 04:28:54;;;;;;;2.92;2.30;;;;;12.70;98801.00;;;;4936199;29;20044;-67
2023/09/15 04:31:20;;;;;;;4.82;2.40;;;;;12.80;98816.00;;;;4935864;29;20055;-66
2023/09/15 04:33:49;;;;;;;4.55;2.75;;;;;12.60;98806.00;;;;4934918;29;20047;-65
2023/09/15 04:36:16;;;;;;;6.65;2.53;;;;;12.60;98809.00;;;;4919707;29;20052;-66
2023/09/15 04:38:43;;;;;;;10.30;2.72;;;;;12.60;98803.00;;;;4935638;29;20051;-65
2023/09/15 04:41:09;;;;;;;6.97;2.40;;;;;12.70;98802.00;;;;4935636;29;20071;-65
2023/09/15 04:43:36;;;;;;;6.60;2.35;;;;;12.70;98808.00;;;;4936294;29;20044;-68
2023/09/15 04:46:03;;;;;;;5.50;2.30;;;;;12.80;98804.00;;;;4919767;29;20052;-65
2023/09/15 04:48:29;;;;;;;4.85;2.03;;;;;12.80;98812.00;;;;4935573;29;20524;-65
2023/09/15 04:50:56;;;;;;;3.95;2.58;;;;;12.80;98813.00;;;;4919377;29;20044;-67
2023/09/15 04:53:23;;;;;;;8.90;2.50;;;;;12.70;98809.00;;;;4936781;29;20071;-66
2023/09/15 04:55:50;;;;;;;13.02;4.28;;;;;12.60;98822.00;;;;4935595;29;20043;-66
2023/09/15 04:58:17;;;;;;;9.82;2.28;;;;;12.70;98819.00;;;;4935979;29;20048;-66
2023/09/15 05:00:46;;;;;;;5.70;2.70;;;;;12.70;98811.00;;;;4937029;29;20044;-65
2023/09/15 05:03:13;;;;;;;14.55;3.05;;;;;12.70;98812.00;;;;4935698;29;20099;-66
2023/09/15 05:05:43;;;;;;;6.47;2.67;;;;;12.80;98806.00;;;;4935330;29;20052;-67
2023/09/15 05:08:10;;;;;;;6.82;2.35;;;;;12.80;98805.00;;;;4935275;29;20051;-65
2023/09/15 05:10:37;;;;;;;8.20;2.67;;;;;12.90;98816.00;;;;4936785;29;20054;-66
2023/09/15 05:13:05;;;;;;;7.78;3.28;;;;;12.90;98809.00;;;;4937075;29;20067;-66
2023/09/15 05:15:34;;;;;;;6.50;2.67;;;;;12.90;98819.00;;;;4935940;29;20508;-67
2023/09/15 05:18:02;;;;;;;7.93;3.08;;;;;13.00;98826.00;;;;4921505;29;20508;-67
2023/09/15 05:20:30;;;;;;;9.80;3.13;;;;;13.00;98820.00;;;;4935934;29;20076;-66
2023/09/15 05:22:57;;;;;;;15.88;4.32;;;;;13.00;98821.00;;;;4937184;29;20048;-66
2023/09/15 05:25:24;;;;;;;6.53;2.47;;;;;13.00;98827.00;;;;4921138;29;20075;-67
2023/09/15 05:27:50;;;;;;;8.85;2.45;;;;;12.90;98826.00;;;;4921715;29;20079;-67
2023/09/15 05:30:17;;;;;;;12.00;2.97;;;;;12.70;98818.00;;;;4937559;29;20544;-66
2023/09/15 05:32:44;;;;;;;6.43;2.97;;;;;12.50;98819.00;;;;4936801;29;20043;-67
2023/09/15 05:35:10;;;;;;;4.18;2.60;;;;;12.60;98822.00;;;;4937310;29;20050;-66
2023/09/15 05:37:37;;;;;;;3.63;2.60;;;;;12.80;98822.00;;;;4937605;29;20453;-66
2023/09/15 05:40:05;;;;;;;8.27;3.20;;;;;12.80;98823.00;;;;4938220;29;20082;-66
2023/09/15 05:42:31;;;;;;;7.93;3.10;;;;;12.80;98828.00;;;;4938990;29;20412;-66
2023/09/15 05:44:59;;;;;;;7.97;2.55;;;;;12.70;98829.00;;;;4940333;29;20054;-68
2023/09/15 05:47:26;;;;;;;8.48;3.95;;;;;12.60;98820.00;;;;4921838;29;20505;-66
2023/09/15 05:49:53;;;;;;;4.55;3.15;;;;;12.70;98826.00;;;;4938435;29;20043;-65
2023/09/15 05:52:20;;;;;;;5.38;2.85;;;;;12.60;98827.00;;;;4938770;29;20112;-66
2023/09/15 05:54:47;;;;;;;10.65;3.05;;;;;12.50;98823.00;;;;4937021;29;20067;-66
2023/09/15 05:57:14;;;;;;;8.68;2.53;;;;;12.60;98826.00;;;;4937875;29;20050;-66
2023/09/15 05:59:41;;;;;;;3.88;2.72;;;;;12.60;98821.00;;;;4937765;29;20075;-66
2023/09/15 06:02:07;;;;;;;12.65;3.90;;;;;12.70;98823.00;;;;4921796;29;20115;-66
2023/09/15 06:04:34;;;;;;;6.80;3.53;;;;;12.70;98836.00;;;;4936496;29;20118;-66
2023/09/15 06:07:01;;;;;;;7.22;3.13;;;;;12.80;98836.00;;;;4938294;29;20051;-66
2023/09/15 06:09:29;;;;;;;6.97;3.55;;;;;12.90;98835.00;;;;4936956;29;20047;-68
2023/09/15 06:11:55;;;;;;;4.93;2.63;;;;;13.00;98829.00;;;;4938641;29;20457;-66
2023/09/15 06:14:22;;;;;;;6.13;2.88;;;;;13.10;98834.00;;;;4936476;29;20091;-65
2023/09/15 06:16:48;;;;;;;5.90;3.20;;;;;13.10;98834.00;;;;4921119;29;20060;-65
2023/09/15 06:19:15;;;;;;;8.70;2.88;;;;;13.20;98825.00;;;;4920942;29;20047;-67
2023/09/15 06:21:42;;;;;;;6.32;2.83;;;;;13.20;98820.00;;;;4921606;29;20059;-65
2023/09/15 06:24:09;;;;;;;11.40;3.60;;;;;13.30;98824.00;;;;4936901;29;20040;-65
2023/09/15 06:26:37;;;;;;;10.63;3.47;;;;;13.30;98825.00;;;;4938599;29;20120;-67
2023/09/15 06:29:05;;;;;;;14.93;3.72;;;;;13.40;98822.00;;;;4922243;29;20528;-66
2023/09/15 06:31:32;;;;;;;7.32;2.90;;;;;13.40;98822.00;;;;4937368;29;20145;-66
2023/09/15 06:33:59;;;;;;;9.98;3.42;;;;;13.60;98816.00;;;;4941481;29;20127;-66
2023/09/15 06:36:26;;;;;;;8.75;3.50;;;;;13.60;98818.00;;;;4941753;29;20102;-67
2023/09/15 06:38:53;;;;;;;11.80;3.88;;;;;13.60;98819.00;;;;4942314;29;20576;-66
2023/09/15 06:41:19;;;;;;;8.80;3.33;;;;;13.70;98814.00;;;;4924800;29;20600;-65
2023/09/15 06:43:46;;;;;;;12.43;3.70;;;;;13.80;98820.00;;;;4939437;29;20048;-66
2023/09/15 06:46:15;;;;;;;9.55;3.47;;;;;13.80;98819.00;;;;4941170;29;20144;-68
2023/09/15 06:48:42;;;;;;;13.20;3.65;;;;;13.80;98816.00;;;;4939813;29;20089;-66
2023/09/15 06:51:08;;;;;;;8.63;3.80;;;;;13.90;98814.00;;;;4940081;29;20051;-66
2023/09/15 06:53:35;;;;;;;8.27;3.35;;;;;14.00;98822.00;;;;4955368;29;20091;-67
2023/09/15 06:56:01;;;;;;;11.70;3.78;;;;;14.10;98821.00;;;;4939584;29;20075;-67
2023/09/15 06:58:28;;;;;;;9.43;3.45;;;;;14.30;98822.00;;;;4941085;29;20063;-67
2023/09/15 07:00:55;;;;;;;5.50;3.85;;;;;14.40;98825.00;;;;4939821;29;20509;-67
2023/09/15 07:03:24;;;;;;;8.80;3.63;;;;;14.50;98815.00;;;;4940515;29;20551;-72
2023/09/15 07:05:51;;;;;;;9.77;3.65;;;;;14.60;98821.00;;;;4941714;29;20412;-66
2023/09/15 07:08:17;;;;;;;6.97;3.97;;;;;14.60;98816.00;;;;4924389;29;20073;-67
2023/09/15 07:10:44;;;;;;;11.85;5.03;;;;;14.70;98814.00;;;;4941049;29;20115;-67
2023/09/15 07:13:12;;;;;;;9.90;3.65;;;;;14.80;98816.00;;;;4941636;29;20048;-67
2023/09/15 07:15:39;;;;;;;6.65;3.28;;;;;14.90;98825.00;;;;4922286;29;20062;-66
2023/09/15 07:18:07;;;;;;;4.65;3.30;;;;;14.90;98825.00;;;;4939424;29;20059;-66
2023/09/15 07:20:34;;;;;;;6.13;3.67;;;;;15.00;98825.00;;;;4939853;29;20051;-68
2023/09/15 07:23:00;;;;;;;7.65;4.13;;;;;15.10;98812.00;;;;4923695;29;20044;-66
2023/09/15 07:25:27;;;;;;;8.52;4.15;;;;;15.20;98817.00;;;;4938823;29;20111;-66
2023/09/15 07:27:54;;;;;;;5.40;3.70;;;;;15.40;98823.00;;;;4939337;29;20070;-68
2023/09/15 07:30:21;;;;;;;7.70;3.70;;;;;15.60;98820.00;;;;4923667;29;20056;-66
2023/09/15 07:32:48;;;;;;;5.97;4.35;;;;;15.70;98811.00;;;;4923850;29;20241;-66
2023/09/15 07:35:15;;;;;;;9.63;3.75;;;;;15.80;98819.00;;;;4939128;29;20155;-66
2023/09/15 07:37:42;;;;;;;10.90;4.50;;;;;16.00;98809.00;;;;4932327;29;20052;-66
2023/09/15 07:40:09;;;;;;;10.80;3.55;;;;;16.10;98817.00;;;;4920909;29;20116;-66
2023/09/15 07:42:36;;;;;;;7.50;3.35;;;;;16.30;98816.00;;;;4920267;29;20052;-66
2023/09/15 07:45:03;;;;;;;8.77;3.65;;;;;16.40;98809.00;;;;4919512;29;20055;-66
2023/09/15 07:47:31;;;;;;;12.23;4.55;;;;;16.60;98805.00;;;;4904690;29;20083;-66
2023/09/15 07:49:58;;;;;;;10.65;3.92;;;;;16.60;98800.00;;;;4920161;29;20052;-66
2023/09/15 07:52:26;;;;;;;11.18;4.30;;;;;16.50;98809.00;;;;4920539;29;20044;-64
2023/09/15 07:54:53;;;;;;;6.43;3.17;;;;;16.70;98799.00;;;;4905408;29;20143;-66
2023/09/15 07:57:20;;;;;;;8.65;3.72;;;;;16.90;98795.00;;;;4924767;29;20036;-67
2023/09/15 07:59:47;;;;;;;8.50;3.63;;;;;17.00;98787.00;;;;4929989;29;20200;-67
2023/09/15 08:02:23;;;;;;;13.75;5.85;;;;;17.10;98782.00;;;;4930557;29;20052;-68
2023/09/15 08:04:50;;;;;;;9.73;5.93;;;;;17.20;98787.00;;;;4927894;29;20048;-67
2023/09/15 08:07:17;;;;;;;7.65;3.15;;;;;17.30;98793.00;;;;4912592;29;20052;-69
2023/09/15 08:09:44;;;;;;;7.65;3.95;;;;;17.40;98791.00;;;;4928441;29;20052;-68
2023/09/15 08:12:10;;;;;;;5.72;2.90;;;;;17.60;98796.00;;;;4927543;29;20052;-68
2023/09/15 08:14:38;;;;;;;7.78;3.42;;;;;17.80;98786.00;;;;4912928;29;20410;-66
2023/09/15 08:17:06;;;;;;;8.48;3.40;;;;;17.90;98798.00;;;;4929387;29;20045;-67
2023/09/15 08:19:39;;;;;;;11.38;4.40;;;;;17.90;98795.00;;;;4914434;29;20060;-68
2023/09/15 08:22:06;;;;;;;7.38;3.25;;;;;18.00;98785.00;;;;4912253;29;20052;-69
2023/09/15 08:24:33;;;;;;;10.73;3.60;;;;;18.10;98794.00;;;;4927659;29;20040;-68
2023/09/15 08:26:59;;;;;;;10.15;3.28;;;;;18.30;98798.00;;;;4912191;29;20048;-68
2023/09/15 08:29:26;;;;;;;7.40;2.67;;;;;18.50;98793.00;;;;4912693;29;20048;-69
2023/09/15 08:31:53;;;;;;;9.30;3.47;;;;;18.60;98791.00;;;;4927852;29;20071;-67
2023/09/15 08:34:20;;;;;;;5.35;2.70;;;;;18.70;98792.00;;;;4910694;29;20108;-68
2023/09/15 08:36:47;;;;;;;6.55;3.17;;;;;18.90;98792.00;;;;4927407;29;20048;-69
2023/09/15 08:39:14;;;;;;;5.43;2.97;;;;;19.00;98795.00;;;;4927987;29;20103;-67
2023/09/15 08:42:02;;;;;;;6.72;3.03;;;;;19.00;98787.00;;;;4913086;29;20506;-68
2023/09/15 08:44:31;;;;;;;8.57;3.58;;;;;19.10;98785.00;;;;4928613;29;20048;-71
2023/09/15 08:47:00;;;;;;;5.68;3.10;;;;;19.30;98787.00;;;;4927650;29;20565;-68
2023/09/15 08:49:28;;;;;;;5.30;2.97;;;;;19.40;98781.00;;;;4912680;29;20056;-68
2023/09/15 08:51:56;;;;;;;5.75;3.50;;;;;19.40;98780.00;;;;4913142;29;20056;-67
2023/09/15 08:54:23;;;;;;;4.97;2.70;;;;;19.60;98778.00;;;;4912627;29;20052;-67
2023/09/15 08:56:49;;;;;;;4.55;2.88;;;;;19.60;98784.00;;;;4928943;29;20052;-70
2023/09/15 08:59:16;;;;;;;6.72;2.85;;;;;19.70;98778.00;;;;4926142;29;20048;-67
2023/09/15 09:01:43;;;;;;;6.38;3.33;;;;;19.80;98788.00;;;;4927215;29;20067;-68
2023/09/15 09:04:11;;;;;;;4.30;3.08;;;;;19.90;98783.00;;;;4926992;29;20044;-68
2023/09/15 09:06:39;;;;;;;8.30;4.25;;;;;20.00;98780.00;;;;4926993;29;20080;-70
2023/09/15 09:09:07;;;;;;;4.57;2.53;;;;;20.20;98786.00;;;;4927301;29;20059;-68
2023/09/15 09:11:34;;;;;;;6.40;2.75;;;;;20.30;98779.00;;;;4930214;29;20079;-69
2023/09/15 09:14:00;;;;;;;7.93;5.20;;;;;20.30;98779.00;;;;4932189;29;20054;-70
2023/09/15 09:16:27;;;;;;;3.95;3.03;;;;;20.40;98779.00;;;;4914326;29;20075;-68
2023/09/15 09:19:00;;;;;;;6.05;2.58;;;;;20.60;98776.00;;;;4927731;29;20064;-70
2023/09/15 09:21:30;;;;;;;4.50;2.65;;;;;20.70;98776.00;;;;4928475;29;20048;-70
2023/09/15 09:23:58;;;;;;;5.38;2.88;;;;;20.80;98771.00;;;;4928861;29;20052;-69
2023/09/15 09:26:24;;;;;;;5.13;2.80;;;;;20.90;98773.00;;;;4931209;29;20064;-69
2023/09/15 09:28:56;;;;;;;7.50;3.03;;;;;20.90;98775.00;;;;4933785;29;20048;-68
2023/09/15 09:31:25;;;;;;;3.97;2.40;;;;;21.10;98770.00;;;;4932787;29;20052;-70
2023/09/15 09:33:55;;;;;;;3.30;2.20;;;;;21.10;98772.00;;;;4931965;29;20044;-70
2023/09/15 09:36:23;;;;;;;7.15;3.33;;;;;21.20;98770.00;;;;4926932;29;20577;-70
2023/09/15 09:38:51;;;;;;;6.78;2.50;;;;;21.40;98767.00;;;;4927579;29;20052;-69
2023/09/15 09:41:24;;;;;;;3.33;2.72;;;;;21.60;98765.00;;;;4931281;29;20075;-68
2023/09/15 09:43:55;;;;;;;4.88;2.92;;;;;21.70;98763.00;;;;4947631;29;20048;-67
2023/09/15 09:46:21;;;;;;;3.38;2.40;;;;;21.90;98759.00;;;;4948911;29;20055;-68
2023/09/15 09:48:51;;;;;;;7.43;3.15;;;;;22.00;98759.00;;;;4946936;29;20051;-69
2023/09/15 09:51:19;;;;;;;4.63;2.58;;;;;22.00;98748.00;;;;4947116;29;20048;-68
2023/09/15 09:53:47;;;;;;;7.70;2.90;;;;;22.00;98750.00;;;;4947237;29;20078;-69
2023/09/15 09:56:16;;;;;;;4.25;2.40;;;;;22.00;98745.00;;;;4928825;29;20479;-68
2023/09/15 09:58:43;;;;;;;4.18;2.78;;;;;22.10;98744.00;;;;4944190;29;20052;-67
2023/09/15 10:01:11;;;;;;;4.90;2.70;;;;;22.20;98745.00;;;;4944929;29;20048;-69
2023/09/15 10:03:38;;;;;;;4.75;3.03;;;;;22.30;98742.00;;;;4945026;29;20101;-71
2023/09/15 10:06:05;;;;;;;3.45;2.72;;;;;22.30;98740.00;;;;4946303;29;20067;-70
2023/09/15 10:08:33;;;;;;;4.60;3.05;;;;;22.50;98737.00;;;;4951762;29;20074;-70
2023/09/15 10:11:00;;;;;;;4.25;2.70;;;;;22.60;98737.00;;;;4952489;29;20071;-69
2023/09/15 10:13:29;;;;;;;5.18;2.75;;;;;22.70;98734.00;;;;4958552;29;20039;-69
2023/09/15 10:15:56;;;;;;;5.57;2.80;;;;;22.80;98734.00;;;;4944023;29;20046;-69
2023/09/15 10:18:24;;;;;;;3.92;2.60;;;;;22.90;98733.00;;;;4957291;29;20055;-70
2023/09/15 10:20:55;;;;;;;6.25;3.58;;;;;22.90;98721.00;;;;4939349;29;20504;-69
2023/09/15 10:23:24;;;;;;;4.50;3.17;;;;;23.00;98718.00;;;;4954768;29;20059;-70
2023/09/15 10:25:54;;;;;;;5.30;3.35;;;;;23.20;98713.00;;;;4953016;29;20071;-68
2023/09/15 10:28:24;;;;;;;6.15;2.80;;;;;23.40;98713.00;;;;4954988;29;20047;-68
2023/09/15 10:30:55;;;;;;;6.50;3.42;;;;;23.60;98714.00;;;;4956490;29;20047;-68
2023/09/15 10:33:25;;;;;;;4.35;3.55;;;;;23.60;98706.00;;;;4956267;29;20035;-69
2023/09/15 10:36:01;;;;;;;4.78;3.60;;;;;23.60;98708.00;;;;4954614;29;20497;-69
2023/09/15 10:38:29;;;;;;;6.90;3.78;;;;;23.60;98708.00;;;;4955763;29;20107;-68
2023/09/15 10:41:01;;;;;;;4.35;3.22;;;;;23.70;98709.00;;;;4957425;29;20052;-68
2023/09/15 10:43:27;;;;;;;4.35;3.17;;;;;23.90;98705.00;;;;4955917;29;20421;-68
2023/09/15 10:45:57;;;;;;;5.28;3.20;;;;;24.00;98698.00;;;;4956441;29;20063;-68
2023/09/15 10:48:44;;;;;;;3.53;2.80;;;;;24.10;98698.00;;;;4954734;29;20039;-68
2023/09/15 10:51:11;;;;;;;3.00;2.78;;;;;24.30;98701.00;;;;4957281;29;20051;-67
2023/09/15 10:53:49;;;;;;;4.03;2.95;;;;;24.30;98701.00;;;;4955872;29;20076;-67
2023/09/15 10:56:17;;;;;;;4.13;2.70;;;;;24.40;98696.00;;;;4956066;29;20066;-67
2023/09/15 10:58:48;;;;;;;3.13;2.80;;;;;24.30;98696.00;;;;4955721;29;20048;-67
2023/09/15 11:01:16;;;;;;;3.63;2.90;;;;;24.40;98693.00;;;;4955335;29;20072;-67
2023/09/15 11:03:44;;;;;;;5.18;2.85;;;;;24.30;98693.00;;;;4955509;29;20048;-68
2023/09/15 11:06:16;;;;;;;3.33;3.00;;;;;24.30;98691.00;;;;4956507;29;20047;-68
2023/09/15 11:08:42;;;;;;;3.75;3.38;;;;;24.40;98686.00;;;;4955023;29;20051;-67
2023/09/15 11:11:10;;;;;;;3.78;3.15;;;;;24.50;98686.00;;;;4954787;29;20048;-68
2023/09/15 11:13:39;;;;;;;4.70;2.95;;;;;24.50;98682.00;;;;4947163;29;20115;-67
2023/09/15 11:16:08;;;;;;;3.08;2.50;;;;;24.60;98680.00;;;;4945460;29;20052;-68
2023/09/15 11:18:37;;;;;;;4.85;3.47;;;;;24.60;98676.00;;;;4947639;29;20110;-68
2023/09/15 11:21:07;;;;;;;4.22;2.67;;;;;24.80;98678.00;;;;4947746;29;20108;-67
2023/09/15 11:23:34;;;;;;;3.33;2.90;;;;;24.80;98674.00;;;;4948358;29;20036;-68
2023/09/15 11:26:06;;;;;;;5.03;3.10;;;;;24.90;98673.00;;;;4946967;29;20079;-67
2023/09/15 11:28:53;;;;;;;3.80;3.13;;;;;25.00;98666.00;;;;4948087;29;20071;-67
2023/09/15 11:31:20;;;;;;;2.65;2.45;;;;;24.90;98651.00;;;;4947813;29;20055;-67
2023/09/15 11:33:48;;;;;;;3.85;3.17;;;;;25.00;98656.00;;;;4946102;29;20047;-68
2023/09/15 11:36:15;;;;;;;4.65;2.72;;;;;25.10;98655.00;;;;4948648;29;20054;-66
2023/09/15 11:38:44;;;;;;;3.78;2.80;;;;;25.20;98651.00;;;;4948562;29;20060;-67
2023/09/15 11:41:12;;;;;;;3.33;2.45;;;;;25.20;98654.00;;;;4948826;29;20216;-67
2023/09/15 11:43:39;;;;;;;2.53;2.33;;;;;25.20;98646.00;;;;4944376;29;20055;-67
2023/09/15 11:46:07;;;;;;;3.83;2.65;;;;;25.30;98653.00;;;;4953127;29;20056;-67
2023/09/15 11:48:38;;;;;;;4.30;2.42;;;;;25.40;98645.00;;;;4940605;29;20084;-68
2023/09/15 11:51:09;;;;;;;4.65;2.42;;;;;25.60;98635.00;;;;4955911;29;20044;-68
2023/09/15 11:53:37;;;;;;;2.90;2.47;;;;;25.80;98635.00;;;;4955473;29;20080;-67
2023/09/15 11:56:05;;;;;;;2.80;2.60;;;;;25.90;98629.00;;;;4956836;29;20055;-66
2023/09/15 11:58:32;;;;;;;4.70;2.30;;;;;25.90;98626.00;;;;4941330;29;20056;-67
2023/09/15 12:01:01;;;;;;;2.47;2.28;;;;;25.90;98629.00;;;;4958294;29;20059;-67
2023/09/15 12:03:31;;;;;;;3.70;2.60;;;;;26.00;98633.00;;;;4956839;29;20059;-68
2023/09/15 12:05:58;;;;;;;4.20;2.20;;;;;26.20;98632.00;;;;4955385;29;20051;-67
2023/09/15 12:08:27;;;;;;;2.55;2.25;;;;;26.30;98629.00;;;;4951524;29;20052;-68
2023/09/15 12:10:54;;;;;;;4.55;2.80;;;;;26.40;98628.00;;;;4952193;29;20115;-67
2023/09/15 12:13:37;;;;;;;5.35;2.70;;;;;26.40;98614.00;;;;4953507;29;20591;-69
2023/09/15 12:16:04;;;;;;;3.03;2.20;;;;;26.50;98620.00;;;;4950299;29;20059;-68
2023/09/15 12:18:38;;;;;;;3.85;2.28;;;;;26.50;98613.00;;;;4953049;29;20111;-68
2023/09/15 12:21:14;;;;;;;4.80;2.55;;;;;26.60;98613.00;;;;4950840;29;20095;-68